createdAt,value
2017-07-12T00:00:45.722Z,96.2
2017-07-12T00:01:47.378Z,96.1
2017-07-12T00:02:49.036Z,95.9
2017-07-12T00:03:50.694Z,96.3
2017-07-12T00:04:52.359Z,95.8
2017-07-12T00:05:54.020Z,95.6
2017-07-12T00:06:55.678Z,95.8
2017-07-12T00:07:57.353Z,95.4
2017-07-12T00:08:59.017Z,95.5
2017-07-12T00:10:00.677Z,95.6
2017-07-12T00:11:02.335Z,95.0
2017-07-12T00:12:03.996Z,95.4
2017-07-12T00:13:05.666Z,95.6
2017-07-12T00:14:07.326Z,95.2
2017-07-12T00:15:08.983Z,95.7
2017-07-12T00:16:10.641Z,94.4
2017-07-12T00:17:12.294Z,94.2
2017-07-12T00:18:13.955Z,95.3
2017-07-12T00:19:15.606Z,95.2
2017-07-12T00:20:17.260Z,95.1
2017-07-12T00:21:18.920Z,94.5
2017-07-12T00:22:20.611Z,94.4
2017-07-12T00:23:22.275Z,94.5
2017-07-12T00:24:23.934Z,94.4
2017-07-12T00:25:25.596Z,94.5
2017-07-12T00:26:27.255Z,94.5
2017-07-12T00:27:28.935Z,94.2
2017-07-12T00:28:30.589Z,94.0
2017-07-12T00:29:32.250Z,94.9
2017-07-12T00:30:33.901Z,95.0
2017-07-12T00:31:35.563Z,94.9
2017-07-12T00:32:37.215Z,95.0
2017-07-12T00:33:38.876Z,94.9
2017-07-12T00:34:40.554Z,95.0
2017-07-12T00:35:42.213Z,94.9
2017-07-12T00:36:43.872Z,95.0
2017-07-12T00:37:45.530Z,95.2
2017-07-12T00:38:47.188Z,95.5
2017-07-12T00:39:48.848Z,95.7
2017-07-12T00:40:50.528Z,95.5
2017-07-12T00:41:52.187Z,95.4
2017-07-12T00:42:53.840Z,94.7
2017-07-12T00:43:55.494Z,95.1
2017-07-12T00:44:57.161Z,95.5
2017-07-12T00:45:58.814Z,95.4
2017-07-12T00:47:00.469Z,95.1
2017-07-12T00:48:02.134Z,95.5
2017-07-12T00:49:03.847Z,95.0
2017-07-12T00:50:05.520Z,94.9
2017-07-12T00:51:07.186Z,95.3
2017-07-12T00:52:08.847Z,95.2
2017-07-12T00:53:10.502Z,94.7
2017-07-12T00:54:12.159Z,95.1
2017-07-12T00:55:13.832Z,94.9
2017-07-12T00:56:15.491Z,94.4
2017-07-12T00:57:17.187Z,95.2
2017-07-12T00:58:18.841Z,94.7
2017-07-12T00:59:20.502Z,94.9
2017-07-12T01:00:22.163Z,95.3
2017-07-12T01:01:23.825Z,94.8
2017-07-12T01:02:25.491Z,95.0
2017-07-12T01:03:27.161Z,95.3
2017-07-12T01:04:28.850Z,94.7
2017-07-12T01:05:30.511Z,95.2
2017-07-12T01:06:32.173Z,95.5
2017-07-12T01:07:33.832Z,95.3
2017-07-12T01:08:35.488Z,95.5
2017-07-12T01:09:37.143Z,95.5
2017-07-12T01:10:38.808Z,95.2
2017-07-12T01:11:40.468Z,94.9
2017-07-12T01:12:42.131Z,95.3
2017-07-12T01:13:43.855Z,95.6
2017-07-12T01:14:45.514Z,95.5
2017-07-12T01:15:47.170Z,95.3
2017-07-12T01:16:48.831Z,95.6
2017-07-12T01:17:50.488Z,95.6
2017-07-12T01:18:52.151Z,95.3
2017-07-12T01:19:53.818Z,95.4
2017-07-12T01:20:55.476Z,95.3
2017-07-12T01:21:57.135Z,95.3
2017-07-12T01:22:58.808Z,95.3
2017-07-12T01:24:00.478Z,95.4
2017-07-12T01:25:02.144Z,95.4
2017-07-12T01:26:03.805Z,95.4
2017-07-12T01:27:05.462Z,94.8
2017-07-12T01:28:07.121Z,95.2
2017-07-12T01:29:08.773Z,95.6
2017-07-12T01:30:10.427Z,95.4
2017-07-12T01:31:12.087Z,94.9
2017-07-12T01:32:13.760Z,95.4
2017-07-12T01:33:15.426Z,95.2
2017-07-12T01:34:17.087Z,95.5
2017-07-12T01:35:18.740Z,95.2
2017-07-12T01:36:20.393Z,95.4
2017-07-12T01:37:22.052Z,95.3
2017-07-12T01:38:23.720Z,95.4
2017-07-12T01:39:25.412Z,95.1
2017-07-12T01:40:27.073Z,95.3
2017-07-12T01:41:28.767Z,95.3
2017-07-12T01:42:30.425Z,95.3
2017-07-12T01:43:32.089Z,95.0
2017-07-12T01:44:33.745Z,95.5
2017-07-12T01:45:35.404Z,95.2
2017-07-12T01:46:37.067Z,95.4
2017-07-12T01:47:38.737Z,95.1
2017-07-12T01:48:40.408Z,95.7
2017-07-12T01:49:42.068Z,95.3
2017-07-12T01:50:43.740Z,95.4
2017-07-12T01:51:45.400Z,95.3
2017-07-12T01:52:47.063Z,95.5
2017-07-12T01:53:48.724Z,95.4
2017-07-12T01:54:50.386Z,95.5
2017-07-12T01:55:52.045Z,96.2
2017-07-12T01:56:53.711Z,95.4
2017-07-12T01:57:55.367Z,95.5
2017-07-12T01:58:57.033Z,95.5
2017-07-12T01:59:58.695Z,95.3
2017-07-12T02:01:00.364Z,95.4
2017-07-12T02:02:02.030Z,95.5
2017-07-12T02:03:03.693Z,96.1
2017-07-12T02:04:05.358Z,96.1
2017-07-12T02:05:07.013Z,96.2
2017-07-12T02:06:08.694Z,95.5
2017-07-12T02:07:10.356Z,96.2
2017-07-12T02:08:12.020Z,95.8
2017-07-12T02:09:13.679Z,95.4
2017-07-12T02:10:15.339Z,95.5
2017-07-12T02:11:16.994Z,95.2
2017-07-12T02:12:18.664Z,95.1
2017-07-12T02:13:20.328Z,95.3
2017-07-12T02:14:21.987Z,95.3
2017-07-12T02:15:23.652Z,95.0
2017-07-12T02:16:25.315Z,95.0
2017-07-12T02:17:26.985Z,95.1
2017-07-12T02:18:28.693Z,94.7
2017-07-12T02:19:30.394Z,95.0
2017-07-12T02:20:32.053Z,94.7
2017-07-12T02:21:33.718Z,95.3
2017-07-12T02:22:35.379Z,95.3
2017-07-12T02:23:37.041Z,95.0
2017-07-12T02:24:38.715Z,94.8
2017-07-12T02:25:40.372Z,95.3
2017-07-12T02:26:42.059Z,94.9
2017-07-12T02:27:43.694Z,95.5
2017-07-12T02:28:45.351Z,95.2
2017-07-12T02:29:47.021Z,95.1
2017-07-12T02:30:48.694Z,95.4
2017-07-12T02:31:50.347Z,95.0
2017-07-12T02:32:52.016Z,95.5
2017-07-12T02:33:53.673Z,95.3
2017-07-12T02:34:55.333Z,95.3
2017-07-12T02:35:56.997Z,95.7
2017-07-12T02:36:58.734Z,95.1
2017-07-12T02:38:00.402Z,95.3
2017-07-12T02:39:02.063Z,95.4
2017-07-12T02:40:03.789Z,95.6
2017-07-12T02:41:05.408Z,95.1
2017-07-12T02:42:07.089Z,95.5
2017-07-12T02:43:08.741Z,96.2
2017-07-12T02:44:10.410Z,96.0
2017-07-12T02:45:12.066Z,96.3
2017-07-12T02:46:13.731Z,95.3
2017-07-12T02:47:15.394Z,95.5
2017-07-12T02:48:17.060Z,94.9
2017-07-12T02:49:18.716Z,95.1
2017-07-12T02:50:20.380Z,95.3
2017-07-12T02:51:22.041Z,95.2
2017-07-12T02:52:23.702Z,95.5
2017-07-12T02:53:25.365Z,95.5
2017-07-12T02:54:27.017Z,95.4
2017-07-12T02:55:28.713Z,95.6
2017-07-12T02:56:30.371Z,95.0
2017-07-12T02:57:32.038Z,95.1
2017-07-12T02:58:33.699Z,95.3
2017-07-12T02:59:36.273Z,95.1
2017-07-12T03:00:37.944Z,95.1
2017-07-12T03:01:39.601Z,94.5
2017-07-12T03:02:41.256Z,94.8
2017-07-12T03:03:42.915Z,94.6
2017-07-12T03:04:44.581Z,94.9
2017-07-12T03:05:46.243Z,94.5
2017-07-12T03:06:47.918Z,94.9
2017-07-12T03:07:49.605Z,94.7
2017-07-12T03:08:51.262Z,94.9
2017-07-12T03:09:52.925Z,95.2
2017-07-12T03:10:54.655Z,94.9
2017-07-12T03:11:56.347Z,94.7
2017-07-12T03:12:58.004Z,94.9
2017-07-12T03:13:59.670Z,94.9
2017-07-12T03:15:02.402Z,94.7
2017-07-12T03:16:04.074Z,95.1
2017-07-12T03:17:05.735Z,95.6
2017-07-12T03:18:08.627Z,94.8
2017-07-12T03:19:10.057Z,94.8
2017-07-12T03:20:11.717Z,95.7
2017-07-12T03:21:13.436Z,95.3
2017-07-12T03:22:15.098Z,95.3
2017-07-12T03:23:16.763Z,95.5
2017-07-12T03:24:18.428Z,95.6
2017-07-12T03:25:20.095Z,95.2
2017-07-12T03:26:21.754Z,95.0
2017-07-12T03:27:23.418Z,95.0
2017-07-12T03:28:25.663Z,94.9
2017-07-12T03:29:27.119Z,94.9
2017-07-12T03:30:28.805Z,95.5
2017-07-12T03:31:30.476Z,95.5
2017-07-12T03:32:32.145Z,96.2
2017-07-12T03:33:33.808Z,95.6
2017-07-12T03:34:35.466Z,95.0
2017-07-12T03:35:37.136Z,95.6
2017-07-12T03:36:38.788Z,94.8
2017-07-12T03:37:40.449Z,95.0
2017-07-12T03:38:42.131Z,94.9
2017-07-12T03:39:43.794Z,94.8
2017-07-12T03:40:45.451Z,94.8
2017-07-12T03:41:47.121Z,94.7
2017-07-12T03:42:48.791Z,95.2
2017-07-12T03:43:50.459Z,94.9
2017-07-12T03:44:52.158Z,94.7
2017-07-12T03:45:53.783Z,94.8
2017-07-12T03:46:55.443Z,95.0
2017-07-12T03:47:57.149Z,95.5
2017-07-12T03:48:58.819Z,95.0
2017-07-12T03:50:00.480Z,94.8
2017-07-12T03:51:02.151Z,95.4
2017-07-12T03:52:03.821Z,95.3
2017-07-12T03:53:05.486Z,95.2
2017-07-12T03:54:07.158Z,95.4
2017-07-12T03:55:08.815Z,95.9
2017-07-12T03:56:10.488Z,95.9
2017-07-12T03:57:12.150Z,95.3
2017-07-12T03:58:13.813Z,95.8
2017-07-12T03:59:15.482Z,95.6
2017-07-12T04:00:17.136Z,96.2
2017-07-12T04:01:18.809Z,95.8
2017-07-12T04:02:20.469Z,95.6
2017-07-12T04:03:22.154Z,95.6
2017-07-12T04:04:23.823Z,96.1
2017-07-12T04:05:25.493Z,95.4
2017-07-12T04:06:27.148Z,95.5
2017-07-12T04:07:28.839Z,95.4
2017-07-12T04:08:30.508Z,96.2
2017-07-12T04:09:32.172Z,95.8
2017-07-12T04:10:33.837Z,96.0
2017-07-12T04:11:35.508Z,96.1
2017-07-12T04:12:37.169Z,95.6
2017-07-12T04:13:38.833Z,95.8
2017-07-12T04:14:40.495Z,96.1
2017-07-12T04:15:42.252Z,95.5
2017-07-12T04:16:43.911Z,96.0
2017-07-12T04:17:45.597Z,95.5
2017-07-12T04:18:47.316Z,95.3
2017-07-12T04:19:48.926Z,94.8
2017-07-12T04:20:50.598Z,94.5
2017-07-12T04:21:52.271Z,94.6
2017-07-12T04:22:53.938Z,94.4
2017-07-12T04:23:55.610Z,94.5
2017-07-12T04:24:57.279Z,94.4
2017-07-12T04:25:58.950Z,94.7
2017-07-12T04:27:00.642Z,94.6
2017-07-12T04:28:02.311Z,94.6
2017-07-12T04:29:03.978Z,94.6
2017-07-12T04:30:05.643Z,95.0
2017-07-12T04:31:07.351Z,94.0
2017-07-12T04:32:09.023Z,93.7
2017-07-12T04:33:10.688Z,93.5
2017-07-12T04:34:12.357Z,93.1
2017-07-12T04:35:14.016Z,93.2
2017-07-12T04:36:15.686Z,92.7
2017-07-12T04:37:17.350Z,93.6
2017-07-12T04:38:19.020Z,93.3
2017-07-12T04:39:20.683Z,92.7
2017-07-12T04:40:22.350Z,93.2
2017-07-12T04:41:24.010Z,92.9
2017-07-12T04:42:25.667Z,92.8
2017-07-12T04:43:27.356Z,92.1
2017-07-12T04:44:29.060Z,92.2
2017-07-12T04:45:30.735Z,91.9
2017-07-12T04:46:32.417Z,92.7
2017-07-12T04:47:34.081Z,92.5
2017-07-12T04:48:35.819Z,92.6
2017-07-12T04:49:37.486Z,92.0
2017-07-12T04:50:39.156Z,92.8
2017-07-12T04:51:40.821Z,92.6
2017-07-12T04:52:42.482Z,92.5
2017-07-12T04:53:44.156Z,93.0
2017-07-12T04:54:45.820Z,92.9
2017-07-12T04:55:47.484Z,92.9
2017-07-12T04:56:49.148Z,92.3
2017-07-12T04:57:55.303Z,92.5
2017-07-12T04:58:56.964Z,92.6
2017-07-12T04:59:58.635Z,92.0
2017-07-12T05:01:00.303Z,91.2
2017-07-12T05:02:01.994Z,91.6
2017-07-12T05:03:03.677Z,91.1
2017-07-12T05:04:05.346Z,90.6
2017-07-12T05:05:07.016Z,91.3
2017-07-12T05:06:08.680Z,90.6
2017-07-12T05:07:10.386Z,91.3
2017-07-12T05:08:12.051Z,91.2
2017-07-12T05:09:13.717Z,91.3
2017-07-12T05:10:15.385Z,90.9
2017-07-12T05:11:17.047Z,91.0
2017-07-12T05:12:18.729Z,91.7
2017-07-12T05:13:20.402Z,92.0
2017-07-12T05:14:22.208Z,91.2
2017-07-12T05:15:24.270Z,92.3
2017-07-12T05:16:25.907Z,92.2
2017-07-12T05:17:27.596Z,92.0
2017-07-12T05:18:29.283Z,92.8
2017-07-12T05:19:30.954Z,93.2
2017-07-12T05:20:32.630Z,93.7
2017-07-12T05:21:34.305Z,94.1
2017-07-12T05:22:35.963Z,94.3
2017-07-12T05:23:37.628Z,94.6
2017-07-12T05:24:39.307Z,94.5
2017-07-12T05:25:40.973Z,93.9
2017-07-12T05:26:42.642Z,94.3
2017-07-12T05:27:44.314Z,93.6
2017-07-12T05:28:45.974Z,93.8
2017-07-12T05:29:47.636Z,93.7
2017-07-12T05:30:49.303Z,94.2
2017-07-12T05:31:51.012Z,93.5
2017-07-12T05:32:52.687Z,93.4
2017-07-12T05:33:54.359Z,93.6
2017-07-12T05:34:56.017Z,93.7
2017-07-12T05:35:57.680Z,94.2
2017-07-12T05:36:59.349Z,93.6
2017-07-12T05:38:01.016Z,93.5
2017-07-12T05:39:02.684Z,93.6
2017-07-12T05:40:04.361Z,93.3
2017-07-12T05:41:06.022Z,93.5
2017-07-12T05:42:07.691Z,93.3
2017-07-12T05:43:09.352Z,93.5
2017-07-12T05:44:11.017Z,93.5
2017-07-12T05:47:20.383Z,94.3
2017-07-12T05:48:22.044Z,93.9
2017-07-12T05:49:23.712Z,93.5
2017-07-12T05:50:25.384Z,93.3
2017-07-12T05:51:27.049Z,94.3
2017-07-12T05:52:28.750Z,93.7
2017-07-12T05:53:30.413Z,94.0
2017-07-12T05:54:32.084Z,94.3
2017-07-12T05:55:33.761Z,94.5
2017-07-12T05:56:35.442Z,94.6
2017-07-12T05:57:37.104Z,94.5
2017-07-12T05:58:40.680Z,94.5
2017-07-12T05:59:42.343Z,94.6
2017-07-12T06:00:44.020Z,94.3
2017-07-12T06:01:45.694Z,94.2
2017-07-12T06:02:47.369Z,94.5
2017-07-12T06:03:49.038Z,94.8
2017-07-12T06:04:50.701Z,94.5
2017-07-12T06:05:52.363Z,93.8
2017-07-12T06:06:54.036Z,94.6
2017-07-12T06:07:55.719Z,94.7
2017-07-12T06:08:57.448Z,95.1
2017-07-12T06:09:59.084Z,94.5
2017-07-12T06:11:00.765Z,94.4
2017-07-12T06:12:03.354Z,94.3
2017-07-12T06:13:05.034Z,94.9
2017-07-12T06:14:06.703Z,95.4
2017-07-12T06:15:08.375Z,95.0
2017-07-12T06:16:12.072Z,95.3
2017-07-12T06:17:14.260Z,95.2
2017-07-12T06:18:15.928Z,95.0
2017-07-12T06:19:17.714Z,95.1
2017-07-12T06:20:19.383Z,95.0
2017-07-12T06:21:21.065Z,94.6
2017-07-12T06:22:22.998Z,94.6
2017-07-12T06:23:25.435Z,95.0
2017-07-12T06:24:27.137Z,93.5
2017-07-12T06:25:28.862Z,93.5
2017-07-12T06:26:31.217Z,93.5
2017-07-12T06:27:32.892Z,93.2
2017-07-12T06:28:34.565Z,92.6
2017-07-12T06:29:36.230Z,92.9
2017-07-12T06:30:37.895Z,93.6
2017-07-12T06:31:39.553Z,93.6
2017-07-12T06:32:41.229Z,93.6
2017-07-12T06:33:42.888Z,93.1
2017-07-12T06:34:44.598Z,93.4
2017-07-12T06:35:46.219Z,93.9
2017-07-12T06:36:47.886Z,93.2
2017-07-12T06:37:49.549Z,94.4
2017-07-12T06:38:51.210Z,94.1
2017-07-12T06:39:52.868Z,94.9
2017-07-12T06:40:54.529Z,94.9
2017-07-12T06:41:56.192Z,95.4
2017-07-12T06:42:57.857Z,95.2
2017-07-12T06:43:59.525Z,95.0
2017-07-12T06:45:01.187Z,94.6
2017-07-12T06:46:02.881Z,94.3
2017-07-12T06:47:04.551Z,92.7
2017-07-12T06:48:06.210Z,92.7
2017-07-12T06:49:07.865Z,93.0
2017-07-12T06:50:09.531Z,93.5
2017-07-12T06:51:11.198Z,92.6
2017-07-12T06:52:12.864Z,91.9
2017-07-12T06:53:14.534Z,92.8
2017-07-12T06:54:16.236Z,93.0
2017-07-12T06:55:17.906Z,93.3
2017-07-12T06:56:19.571Z,92.6
2017-07-12T06:57:21.237Z,93.0
2017-07-12T06:58:22.900Z,92.3
2017-07-12T06:59:24.566Z,91.3
2017-07-12T07:00:26.240Z,91.4
2017-07-12T07:01:27.897Z,91.7
2017-07-12T07:02:29.561Z,89.8
2017-07-12T07:03:31.223Z,89.1
2017-07-12T07:04:32.887Z,90.1
2017-07-12T07:05:34.556Z,90.2
2017-07-12T07:06:36.215Z,89.1
2017-07-12T07:07:37.914Z,90.2
2017-07-12T07:08:39.621Z,88.6
2017-07-12T07:09:41.285Z,88.9
2017-07-12T07:10:42.968Z,89.3
2017-07-12T07:11:44.646Z,89.4
2017-07-12T07:12:46.368Z,89.4
2017-07-12T07:13:47.972Z,89.9
2017-07-12T07:14:49.628Z,90.8
2017-07-12T07:15:51.291Z,91.4
2017-07-12T07:16:52.970Z,92.2
2017-07-12T07:17:54.638Z,92.6
2017-07-12T07:18:56.303Z,93.5
2017-07-12T07:19:57.966Z,93.4
2017-07-12T07:20:59.633Z,93.6
2017-07-12T07:22:01.328Z,93.2
2017-07-12T07:23:02.993Z,93.0
2017-07-12T07:24:04.652Z,94.3
2017-07-12T07:25:06.314Z,94.6
2017-07-12T07:26:07.977Z,95.1
2017-07-12T07:27:09.643Z,94.4
2017-07-12T07:28:12.405Z,94.8
2017-07-12T07:29:14.009Z,95.6
2017-07-12T07:30:15.667Z,96.0
2017-07-12T07:31:17.329Z,96.4
2017-07-12T07:32:18.996Z,97.1
2017-07-12T07:33:20.920Z,97.2
2017-07-12T07:34:22.584Z,97.7
2017-07-12T07:35:24.245Z,97.6
2017-07-12T07:36:25.909Z,96.8
2017-07-12T07:37:27.584Z,97.9
2017-07-12T07:38:29.275Z,98.4
2017-07-12T07:39:31.078Z,98.0
2017-07-12T07:40:32.746Z,98.1
2017-07-12T07:41:34.413Z,97.9
2017-07-12T07:42:36.081Z,97.5
2017-07-12T07:43:42.865Z,97.1
2017-07-12T07:44:44.579Z,97.0
2017-07-12T07:45:46.241Z,97.4
2017-07-12T07:46:47.944Z,97.7
2017-07-12T07:47:49.611Z,97.0
2017-07-12T07:48:51.283Z,95.2
2017-07-12T07:49:52.958Z,94.9
2017-07-12T07:50:54.627Z,95.7
2017-07-12T07:51:56.288Z,95.7
2017-07-12T07:52:57.963Z,94.9
2017-07-12T07:53:59.672Z,95.1
2017-07-12T07:55:01.343Z,94.6
2017-07-12T07:56:03.017Z,95.4
2017-07-12T07:57:04.685Z,95.2
2017-07-12T07:58:06.351Z,94.9
2017-07-12T07:59:08.016Z,94.5
2017-07-12T08:00:09.686Z,93.4
2017-07-12T08:01:11.404Z,93.6
2017-07-12T08:02:13.062Z,94.8
2017-07-12T08:03:14.753Z,94.6
2017-07-12T08:04:16.421Z,93.9
2017-07-12T08:05:18.083Z,93.7
2017-07-12T08:06:19.742Z,94.0
2017-07-12T08:07:21.413Z,93.7
2017-07-12T08:08:23.082Z,93.3
2017-07-12T08:09:24.766Z,92.9
2017-07-12T08:10:26.443Z,92.6
2017-07-12T08:11:28.100Z,93.9
2017-07-12T08:12:29.776Z,93.6
2017-07-12T08:13:31.443Z,93.8
2017-07-12T08:14:33.190Z,93.6
2017-07-12T08:15:34.810Z,92.7
2017-07-12T08:16:36.485Z,93.2
2017-07-12T08:17:38.166Z,92.7
2017-07-12T08:18:39.830Z,92.7
2017-07-12T08:19:41.495Z,92.2
2017-07-12T08:20:43.163Z,92.9
2017-07-12T08:21:44.842Z,92.6
2017-07-12T08:22:46.541Z,92.9
2017-07-12T08:23:48.210Z,93.1
2017-07-12T08:24:49.873Z,92.7
2017-07-12T08:25:51.538Z,92.5
2017-07-12T08:26:53.200Z,93.4
2017-07-12T08:27:54.867Z,92.7
2017-07-12T08:28:56.528Z,92.5
2017-07-12T08:29:58.195Z,92.7
2017-07-12T08:30:59.874Z,93.1
2017-07-12T08:32:01.552Z,92.9
2017-07-12T08:33:03.222Z,92.5
2017-07-12T08:34:04.889Z,92.5
2017-07-12T08:35:07.492Z,93.1
2017-07-12T08:36:09.162Z,93.9
2017-07-12T08:37:10.840Z,94.0
2017-07-12T08:38:12.515Z,93.5
2017-07-12T08:39:14.193Z,93.3
2017-07-12T08:40:15.871Z,94.0
2017-07-12T08:41:17.537Z,93.5
2017-07-12T08:42:19.210Z,93.5
2017-07-12T08:43:20.870Z,94.6
2017-07-12T08:44:22.538Z,94.0
2017-07-12T08:45:24.214Z,94.4
2017-07-12T08:46:25.901Z,93.4
2017-07-12T08:47:27.581Z,93.9
2017-07-12T08:48:30.059Z,93.3
2017-07-12T08:49:31.729Z,94.4
2017-07-12T08:50:33.405Z,93.7
2017-07-12T08:51:35.084Z,94.4
2017-07-12T08:52:36.767Z,94.2
2017-07-12T08:53:38.502Z,93.8
2017-07-12T08:54:40.114Z,94.7
2017-07-12T08:55:41.780Z,94.5
2017-07-12T08:56:43.452Z,94.6
2017-07-12T08:57:45.129Z,94.5
2017-07-12T08:58:46.804Z,93.5
2017-07-12T08:59:48.471Z,94.2
2017-07-12T09:00:50.160Z,94.8
2017-07-12T09:01:51.834Z,94.5
2017-07-12T09:02:54.443Z,95.3
2017-07-12T09:03:56.109Z,95.2
2017-07-12T09:04:57.811Z,94.6
2017-07-12T09:05:59.486Z,94.9
2017-07-12T09:07:01.176Z,95.5
2017-07-12T09:08:02.853Z,96.3
2017-07-12T09:09:04.527Z,95.8
2017-07-12T09:10:06.219Z,96.3
2017-07-12T09:11:07.890Z,96.0
2017-07-12T09:12:09.574Z,95.0
2017-07-12T09:13:11.242Z,95.1
2017-07-12T09:14:12.952Z,95.7
2017-07-12T09:15:15.308Z,94.9
2017-07-12T09:16:24.358Z,95.8
2017-07-12T09:17:26.996Z,96.3
2017-07-12T09:18:31.677Z,96.3
2017-07-12T09:19:33.516Z,95.8
2017-07-12T09:20:35.689Z,96.0
2017-07-12T09:21:38.150Z,96.1
2017-07-12T09:22:40.899Z,96.8
2017-07-12T09:23:42.679Z,97.0
2017-07-12T15:00:38.808Z,91.4
2017-07-12T15:01:40.577Z,90.6
2017-07-12T15:02:42.625Z,91.6
2017-07-12T15:03:44.700Z,90.6
2017-07-12T15:04:46.645Z,90.3
2017-07-12T15:05:48.582Z,88.9
2017-07-12T15:06:50.812Z,88.6
2017-07-12T15:07:53.028Z,87.0
2017-07-12T15:08:54.883Z,87.9
2017-07-12T15:09:56.897Z,87.3
2017-07-12T15:11:00.978Z,88.1
2017-07-12T15:12:02.839Z,87.6
2017-07-12T15:13:04.639Z,88.3
2017-07-12T15:14:06.465Z,87.0
2017-07-12T15:15:08.281Z,88.3
2017-07-12T15:16:10.141Z,87.4
2017-07-12T15:17:12.026Z,88.4
2017-07-12T15:18:13.917Z,88.1
2017-07-12T15:19:15.733Z,88.0
2017-07-12T15:20:17.572Z,88.4
2017-07-12T15:21:19.367Z,87.4
2017-07-12T15:22:21.214Z,88.3
2017-07-12T15:23:23.001Z,87.5
2017-07-12T15:24:24.853Z,86.7
2017-07-12T15:25:26.720Z,87.0
2017-07-12T15:26:28.623Z,86.7
2017-07-12T15:27:30.404Z,85.8
2017-07-12T15:28:32.125Z,86.9
2017-07-12T15:29:33.935Z,85.5
2017-07-12T15:30:35.670Z,87.8
2017-07-12T15:31:37.374Z,85.9
2017-07-12T15:32:39.133Z,87.5
2017-07-12T15:33:40.907Z,88.2
2017-07-12T15:34:42.694Z,89.3
2017-07-12T15:35:44.456Z,89.2
2017-07-12T15:36:46.450Z,88.3
2017-07-12T15:37:48.222Z,88.9
2017-07-12T15:38:50.230Z,89.8
2017-07-12T15:39:52.035Z,90.4
2017-07-12T15:40:53.931Z,88.9
2017-07-12T15:41:55.739Z,87.1
2017-07-12T15:42:57.555Z,85.5
2017-07-12T15:44:00.065Z,86.7
2017-07-12T15:45:02.024Z,87.8
2017-07-12T15:46:03.820Z,86.7
2017-07-12T15:47:05.660Z,88.1
2017-07-12T15:48:07.635Z,86.4
2017-07-12T15:49:09.511Z,86.3
2017-07-12T15:50:12.218Z,87.0
2017-07-12T15:51:14.258Z,88.3
2017-07-12T15:52:16.046Z,87.2
2017-07-12T15:53:17.902Z,86.9
2017-07-12T15:54:19.676Z,87.0
2017-07-12T15:55:21.483Z,85.5
2017-07-12T15:56:23.293Z,85.4
2017-07-12T15:57:25.064Z,85.5
2017-07-12T15:58:26.879Z,85.9
2017-07-12T15:59:28.777Z,85.1
2017-07-12T16:00:30.572Z,84.3
2017-07-12T16:01:32.950Z,84.2
2017-07-12T16:02:35.189Z,84.2
2017-07-12T16:03:37.141Z,84.5
2017-07-12T16:04:39.156Z,84.3
2017-07-12T16:05:41.111Z,84.6
2017-07-12T16:06:43.000Z,84.4
2017-07-12T16:07:44.871Z,84.3
2017-07-12T16:08:46.824Z,85.1
2017-07-12T16:09:48.644Z,85.2
2017-07-12T16:10:50.553Z,85.4
2017-07-12T16:11:52.494Z,85.2
2017-07-12T16:12:54.373Z,86.7
2017-07-12T16:13:56.199Z,87.3
2017-07-12T16:14:58.150Z,87.2
2017-07-12T16:16:00.044Z,87.1
2017-07-12T16:17:03.939Z,86.0
2017-07-12T16:18:05.990Z,85.9
2017-07-12T16:19:08.028Z,86.4
2017-07-12T16:20:09.952Z,85.9
2017-07-12T16:21:11.939Z,86.8
2017-07-12T16:22:14.046Z,87.2
2017-07-12T16:23:16.037Z,87.3
2017-07-12T16:24:17.993Z,86.9
2017-07-12T16:25:19.774Z,86.8
2017-07-12T16:26:21.692Z,88.5
2017-07-12T16:27:23.525Z,87.7
2017-07-12T16:28:25.379Z,89.3
2017-07-12T16:29:27.589Z,89.5
2017-07-12T16:30:30.142Z,90.6
2017-07-12T16:31:32.028Z,90.7
2017-07-12T16:32:34.267Z,92.1
2017-07-12T16:33:36.419Z,92.2
2017-07-12T16:34:38.370Z,92.7
2017-07-12T16:35:40.436Z,91.8
2017-07-12T16:36:42.641Z,91.2
2017-07-12T16:37:44.838Z,92.6
2017-07-12T16:38:46.789Z,92.8
2017-07-12T16:39:49.033Z,92.6
2017-07-12T16:40:50.702Z,92.6
2017-07-12T16:41:52.636Z,92.5
2017-07-12T16:42:55.126Z,92.1
2017-07-12T16:43:56.977Z,92.0
2017-07-12T16:44:59.544Z,92.6
2017-07-12T16:46:04.155Z,92.5
2017-07-12T16:47:05.917Z,92.6
2017-07-12T16:48:07.760Z,93.5
2017-07-12T16:49:10.101Z,93.1
2017-07-12T16:50:11.990Z,93.9
2017-07-12T16:51:13.976Z,93.0
2017-07-12T16:52:16.795Z,92.9
2017-07-12T16:53:18.805Z,93.5
2017-07-12T16:54:22.479Z,93.3
2017-07-12T16:55:24.678Z,93.6
2017-07-12T16:56:26.744Z,93.4
2017-07-12T16:57:29.045Z,93.9
2017-07-12T16:58:31.031Z,92.6
2017-07-12T16:59:33.120Z,93.1
2017-07-12T17:00:35.131Z,93.3
2017-07-12T17:01:39.527Z,93.1
2017-07-12T17:02:41.504Z,92.4
2017-07-12T17:03:52.181Z,93.5
2017-07-12T17:04:54.285Z,92.5
2017-07-12T17:05:56.503Z,93.1
2017-07-12T17:06:58.492Z,94.0
2017-07-12T17:08:00.454Z,94.0
2017-07-12T17:09:02.395Z,92.8
2017-07-12T17:10:05.167Z,92.7
2017-07-12T17:11:07.500Z,92.5
2017-07-12T17:12:09.330Z,93.1
2017-07-12T17:13:11.205Z,93.1
2017-07-12T17:14:13.260Z,93.3
2017-07-12T17:15:16.219Z,93.7
2017-07-12T17:16:18.698Z,93.5
2017-07-12T17:17:20.513Z,92.9
2017-07-12T17:18:24.249Z,94.5
2017-07-12T17:19:26.741Z,94.2
2017-07-12T17:20:28.932Z,93.0
2017-07-12T17:21:30.881Z,94.0
2017-07-12T17:22:32.871Z,94.2
2017-07-12T17:23:34.909Z,94.3
2017-07-12T17:24:37.591Z,94.5
2017-07-12T17:25:40.566Z,95.1
2017-07-12T17:26:42.530Z,96.1
2017-07-12T17:27:45.252Z,96.8
2017-07-12T17:28:47.864Z,97.2
2017-07-12T17:29:50.123Z,96.7
2017-07-12T17:30:52.065Z,97.4
2017-07-12T17:31:54.359Z,96.1
2017-07-12T17:32:56.721Z,97.3
2017-07-12T17:33:59.691Z,96.7
2017-07-12T17:35:03.027Z,96.7
2017-07-12T17:36:07.122Z,96.6
2017-07-12T17:37:08.927Z,96.5
2017-07-12T17:38:11.125Z,96.4
2017-07-12T17:39:13.411Z,96.7
2017-07-12T17:40:15.914Z,96.9
2017-07-12T17:41:18.100Z,97.1
2017-07-12T17:42:21.945Z,97.4
2017-07-12T17:43:23.772Z,96.7
2017-07-12T17:44:26.445Z,95.6
2017-07-12T17:45:28.484Z,96.7
2017-07-12T17:46:30.356Z,96.7
2017-07-12T17:47:32.170Z,95.9
2017-07-12T17:48:33.948Z,94.6
2017-07-12T17:49:35.879Z,96.0
2017-07-12T17:50:37.702Z,96.5
2017-07-12T17:51:39.445Z,95.2
2017-07-12T17:52:41.205Z,95.4
2017-07-12T17:53:42.927Z,94.6
2017-07-12T17:54:44.897Z,94.8
2017-07-12T17:55:46.637Z,94.7
2017-07-12T17:56:48.730Z,95.6
2017-07-12T17:57:50.492Z,95.2
2017-07-12T17:58:52.249Z,95.0
2017-07-12T17:59:53.949Z,96.0
2017-07-12T18:00:55.804Z,96.2
2017-07-12T18:01:57.416Z,96.4
2017-07-12T18:02:59.154Z,95.8
2017-07-12T18:04:00.902Z,95.8
2017-07-12T18:05:02.595Z,96.1
2017-07-12T18:06:05.303Z,95.3
2017-07-12T18:07:07.001Z,96.1
2017-07-12T18:08:11.273Z,96.4
2017-07-12T18:09:15.059Z,95.8
2017-07-12T18:10:16.754Z,96.3
2017-07-12T18:11:18.556Z,96.0
2017-07-12T18:12:20.397Z,96.6
2017-07-12T18:13:22.324Z,96.3
2017-07-12T18:14:24.078Z,96.5
2017-07-12T18:15:26.104Z,96.7
2017-07-12T18:16:27.901Z,95.7
2017-07-12T18:17:29.792Z,96.3
2017-07-12T18:18:31.597Z,97.0
2017-07-12T18:19:33.977Z,96.9
2017-07-12T18:20:35.811Z,95.8
2017-07-12T18:21:37.759Z,93.5
2017-07-12T18:22:39.561Z,94.1
2017-07-12T18:23:41.761Z,94.5
2017-07-12T18:24:43.700Z,94.3
2017-07-12T18:25:45.662Z,94.3
2017-07-12T18:26:47.442Z,94.3
2017-07-12T18:27:49.223Z,93.2
2017-07-12T18:28:50.981Z,93.1
2017-07-12T18:29:52.742Z,94.0
2017-07-12T18:30:54.685Z,94.1
2017-07-12T18:31:56.569Z,93.4
2017-07-12T18:32:58.347Z,94.0
2017-07-12T18:34:00.230Z,92.9
2017-07-12T18:35:02.085Z,92.5
2017-07-12T18:36:03.924Z,91.6
2017-07-12T18:37:05.793Z,91.9
2017-07-12T18:38:07.564Z,92.9
2017-07-12T18:39:09.505Z,92.8
2017-07-12T18:40:11.472Z,92.0
2017-07-12T18:41:13.288Z,92.1
2017-07-12T18:42:15.504Z,91.6
2017-07-12T18:43:17.523Z,91.6
2017-07-12T18:44:19.319Z,91.1
2017-07-12T18:45:21.097Z,90.8
2017-07-12T18:46:22.850Z,91.0
2017-07-12T18:47:24.849Z,91.5
2017-07-12T18:48:26.905Z,91.5
2017-07-12T18:49:28.966Z,91.7
2017-07-12T18:50:31.117Z,92.6
2017-07-12T18:51:33.958Z,92.5
2017-07-12T18:52:36.509Z,90.8
2017-07-12T18:53:38.432Z,90.3
2017-07-12T18:54:40.266Z,90.4
2017-07-12T18:55:42.156Z,90.6
2017-07-12T18:56:44.006Z,91.2
2017-07-12T18:57:45.866Z,91.7
2017-07-12T18:58:47.723Z,91.7
2017-07-12T18:59:49.590Z,91.5
2017-07-12T19:00:51.495Z,91.7
2017-07-12T19:01:53.314Z,91.6
2017-07-12T19:02:55.233Z,91.7
2017-07-12T19:03:57.043Z,92.4
2017-07-12T19:04:58.906Z,91.4
2017-07-12T19:06:00.634Z,92.0
2017-07-12T19:07:02.402Z,92.5
2017-07-12T19:08:04.141Z,92.9
2017-07-12T19:09:06.893Z,92.8
2017-07-12T19:10:08.732Z,92.7
2017-07-12T19:11:10.641Z,92.7
2017-07-12T19:12:12.481Z,93.2
2017-07-12T19:13:14.426Z,92.4
2017-07-12T19:14:17.585Z,92.6
2017-07-12T19:15:19.315Z,92.5
2017-07-12T19:16:21.027Z,92.5
2017-07-12T19:17:22.821Z,92.4
2017-07-12T19:18:24.715Z,91.6
2017-07-12T19:19:26.427Z,92.4
2017-07-12T19:20:28.173Z,93.2
2017-07-12T19:21:29.901Z,92.5